Hauptseite
METAR-TAF:

METAR-TAF

Flughäfen :

Zeltweg, Österreich

Fliegerhorst Hinterstoisser

Breite: 47-12N, Länge: 014-45E, Höhe: 677 m

Beobachtung

Neuester Wetterbericht von vor 20 Minuten, um 06:20 UTC
Wind 1 kt aus unterschiedlichen Richtungen
Temperatur 0°C
Luftfeuchtigkeit 100%
Luftdruck 1019 hPa
Sichtweite: 5000 m
Nebelschwaden

METAR: LOXZ 200620Z VRB01KT 0500 5000S R26/0300N BCFG FEW300CI 00/00 Q1019 BECMG 3500 RMK

Zeit: 08:40 (06:40 UTC)

Prognose

Neuester Wetterbericht von vor 1 Stunde und 25 Minuten, um 05:15 UTC
Gültige Prognose vom 20 um 06 UTC bis 20 um 15 UTC
Wind 3 kt aus unterschiedlichen Richtungen
Sichtweite: 0400 m
Leicht bewölkt in der Höhe von 25000 ft
Nebel
Übergehend zu
vom 20 um 06 UTC bis 20 um 08 UTC
Sichtweite 10 km oder mehr
Aufgelockert bewölkt in der Höhe von 20000 ft

TAF: LOXZ 200515Z 2006/2015 VRB03KT 0400 FG FEW250 BECMG 2006/2008 9999 SCT200

Wetterbeobachtungen und Prognosen von mehr als 4000 Flughäfen (METAR und TAF Bericht).

Die verfügbaren Stationen werden durch gelbe und rote Markierungen auf der Karte dargestellt.

Führen Sie die Maus auf sie, um den Namen der Station zu sehen.

Darauf klicken, um die Beobachtung von Wetterbeobachtungen und Prognosen zu sehen.

Um die Karte zu ändern : klicken Sie auf den grünen Tasten mit einem schwarzen Kreuz Zum Vergrößern, auf den grünen Button mit einem Gedankenstrich zu verkleinern, oder auf die grünen Pfeile für benachbarte Karten.


METAR-TAF: